createdAt,value
2017-06-18T00:00:23.499Z,80.03
2017-06-18T00:01:24.143Z,80.55
2017-06-18T00:02:24.789Z,80.51
2017-06-18T00:03:25.432Z,80.32
2017-06-18T00:04:26.076Z,80.51
2017-06-18T00:05:26.720Z,81.09
2017-06-18T00:06:27.568Z,80.99
2017-06-18T00:07:28.210Z,80.99
2017-06-18T00:08:28.851Z,80.80
2017-06-18T00:09:29.494Z,80.90
2017-06-18T00:10:30.137Z,81.57
2017-06-18T00:11:30.782Z,81.29
2017-06-18T00:12:31.424Z,80.99
2017-06-18T00:13:32.066Z,80.71
2017-06-18T00:14:32.712Z,80.80
2017-06-18T00:15:33.606Z,80.71
2017-06-18T00:16:34.248Z,81.67
2017-06-18T00:17:34.891Z,80.99
2017-06-18T00:18:35.535Z,81.67
2017-06-18T00:19:36.178Z,81.67
2017-06-18T00:20:36.825Z,81.87
2017-06-18T00:21:37.470Z,82.35
2017-06-18T00:22:38.114Z,81.96
2017-06-18T00:23:38.906Z,82.15
2017-06-18T00:24:39.550Z,81.29
2017-06-18T00:25:40.195Z,80.99
2017-06-18T00:26:40.838Z,80.80
2017-06-18T00:27:41.482Z,80.99
2017-06-18T00:28:42.123Z,81.19
2017-06-18T00:29:42.765Z,80.71
2017-06-18T00:30:43.409Z,81.67
2017-06-18T00:31:44.309Z,81.77
2017-06-18T00:32:44.965Z,81.67
2017-06-18T00:33:45.600Z,81.57
2017-06-18T00:34:46.246Z,81.29
2017-06-18T00:35:46.887Z,80.99
2017-06-18T00:36:47.530Z,80.90
2017-06-18T00:37:48.173Z,81.29
2017-06-18T00:38:48.817Z,80.99
2017-06-18T00:39:49.710Z,81.09
2017-06-18T00:40:50.356Z,81.48
2017-06-18T00:41:51.004Z,81.48
2017-06-18T00:42:51.646Z,81.96
2017-06-18T00:43:52.286Z,82.15
2017-06-18T00:44:52.932Z,81.87
2017-06-18T00:45:53.575Z,81.67
2017-06-18T00:46:54.219Z,81.29
2017-06-18T00:47:55.063Z,81.67
2017-06-18T00:48:55.704Z,81.67
2017-06-18T00:49:56.347Z,81.38
2017-06-18T00:50:56.992Z,81.57
2017-06-18T00:51:57.632Z,81.57
2017-06-18T00:52:58.278Z,81.77
2017-06-18T00:53:58.922Z,81.67
2017-06-18T00:54:59.568Z,81.67
2017-06-18T00:56:00.209Z,82.15
2017-06-18T00:57:01.051Z,81.96
2017-06-18T00:58:01.698Z,81.48
2017-06-18T00:59:02.342Z,81.38
2017-06-18T01:00:02.986Z,81.87
2017-06-18T01:01:03.629Z,81.67
2017-06-18T01:02:04.271Z,81.44
2017-06-18T01:03:04.915Z,81.87
2017-06-18T01:04:05.560Z,82.15
2017-06-18T01:05:06.600Z,82.15
2017-06-18T01:06:07.192Z,81.96
2017-06-18T01:07:07.835Z,82.25
2017-06-18T01:08:08.479Z,81.77
2017-06-18T01:09:09.126Z,81.87
2017-06-18T01:10:09.768Z,81.77
2017-06-18T01:11:10.409Z,81.87
2017-06-18T01:12:11.053Z,81.48
2017-06-18T01:13:11.999Z,82.35
2017-06-18T01:14:12.639Z,82.45
2017-06-18T01:15:13.284Z,82.64
2017-06-18T01:16:13.927Z,82.93
2017-06-18T01:17:14.570Z,82.15
2017-06-18T01:18:15.215Z,82.35
2017-06-18T01:19:15.857Z,82.45
2017-06-18T01:20:16.500Z,81.67
2017-06-18T01:21:17.293Z,81.77
2017-06-18T01:22:17.939Z,81.77
2017-06-18T01:23:18.582Z,82.50
2017-06-18T01:24:19.225Z,82.31
2017-06-18T01:25:19.867Z,82.25
2017-06-18T01:26:20.512Z,82.31
2017-06-18T01:27:21.156Z,82.45
2017-06-18T01:28:21.805Z,82.31
2017-06-18T01:29:22.444Z,82.35
2017-06-18T01:30:23.288Z,81.92
2017-06-18T01:31:23.931Z,81.96
2017-06-18T01:32:24.573Z,82.15
2017-06-18T01:33:25.219Z,81.96
2017-06-18T01:34:25.864Z,81.77
2017-06-18T01:35:26.507Z,81.96
2017-06-18T01:36:27.148Z,82.11
2017-06-18T01:37:27.790Z,82.31
2017-06-18T01:38:28.633Z,82.21
2017-06-18T01:39:29.279Z,82.40
2017-06-18T01:40:29.921Z,82.40
2017-06-18T01:41:30.562Z,82.50
2017-06-18T01:42:31.206Z,82.40
2017-06-18T01:43:31.848Z,82.31
2017-06-18T01:44:32.489Z,82.31
2017-06-18T01:45:33.136Z,82.79
2017-06-18T01:46:33.979Z,82.79
2017-06-18T01:47:34.623Z,82.89
2017-06-18T01:48:35.266Z,82.31
2017-06-18T01:49:35.911Z,82.69
2017-06-18T01:50:36.555Z,82.79
2017-06-18T01:51:37.200Z,82.31
2017-06-18T01:52:37.842Z,82.98
2017-06-18T01:53:38.484Z,83.08
2017-06-18T01:54:39.278Z,82.79
2017-06-18T01:55:39.923Z,83.08
2017-06-18T01:56:40.566Z,82.69
2017-06-18T01:57:41.208Z,83.27
2017-06-18T01:58:41.850Z,82.69
2017-06-18T01:59:42.493Z,82.21
2017-06-18T02:00:43.137Z,82.40
2017-06-18T02:01:43.782Z,82.21
2017-06-18T02:02:44.627Z,82.79
2017-06-18T02:03:45.268Z,82.11
2017-06-18T02:04:45.910Z,83.47
2017-06-18T02:05:46.552Z,83.27
2017-06-18T02:06:47.194Z,82.79
2017-06-18T02:07:47.841Z,83.08
2017-06-18T02:08:48.485Z,83.18
2017-06-18T02:09:49.127Z,83.37
2017-06-18T02:10:49.768Z,83.18
2017-06-18T02:11:50.610Z,83.27
2017-06-18T02:12:51.259Z,83.37
2017-06-18T02:13:51.903Z,83.47
2017-06-18T02:14:52.547Z,83.27
2017-06-18T02:15:53.189Z,83.18
2017-06-18T02:16:53.830Z,83.08
2017-06-18T02:17:54.473Z,82.98
2017-06-18T02:18:55.117Z,83.47
2017-06-18T02:19:55.959Z,83.47
2017-06-18T02:20:56.603Z,83.27
2017-06-18T02:21:57.246Z,83.27
2017-06-18T02:22:57.888Z,83.27
2017-06-18T02:23:58.532Z,83.47
2017-06-18T02:24:59.173Z,83.37
2017-06-18T02:25:59.817Z,83.66
2017-06-18T02:27:00.463Z,83.47
2017-06-18T02:28:01.312Z,83.85
2017-06-18T02:29:02.008Z,83.66
2017-06-18T02:30:02.650Z,83.56
2017-06-18T02:31:03.292Z,83.47
2017-06-18T02:32:03.936Z,83.27
2017-06-18T02:33:04.580Z,83.37
2017-06-18T02:34:05.225Z,83.66
2017-06-18T02:35:05.869Z,83.85
2017-06-18T02:36:06.713Z,84.05
2017-06-18T02:37:07.358Z,83.95
2017-06-18T02:38:08.004Z,83.08
2017-06-18T02:39:08.648Z,83.27
2017-06-18T02:40:09.289Z,83.08
2017-06-18T02:41:09.933Z,83.27
2017-06-18T02:42:10.578Z,83.37
2017-06-18T02:43:11.226Z,83.27
2017-06-18T02:44:11.869Z,83.18
2017-06-18T02:45:12.709Z,83.18
2017-06-18T02:46:13.354Z,83.18
2017-06-18T02:47:13.998Z,83.27
2017-06-18T02:48:14.644Z,83.27
2017-06-18T02:49:15.286Z,83.37
2017-06-18T02:50:15.930Z,83.08
2017-06-18T02:51:16.571Z,83.08
2017-06-18T02:52:17.213Z,83.47
2017-06-18T02:53:18.055Z,83.66
2017-06-18T02:54:18.698Z,83.37
2017-06-18T02:55:19.340Z,83.18
2017-06-18T02:56:19.984Z,83.18
2017-06-18T02:57:20.625Z,83.47
2017-06-18T02:58:21.271Z,83.18
2017-06-18T02:59:21.916Z,83.08
2017-06-18T03:00:22.557Z,82.98
2017-06-18T03:01:23.400Z,83.37
2017-06-18T03:02:24.043Z,83.08
2017-06-18T03:03:24.686Z,83.27
2017-06-18T03:04:25.329Z,82.40
2017-06-18T03:05:25.974Z,82.69
2017-06-18T03:06:26.618Z,83.47
2017-06-18T03:07:27.261Z,82.79
2017-06-18T03:08:27.905Z,83.85
2017-06-18T03:09:28.746Z,83.95
2017-06-18T03:10:29.393Z,83.95
2017-06-18T03:11:30.039Z,83.95
2017-06-18T03:12:30.680Z,83.47
2017-06-18T03:13:31.321Z,82.50
2017-06-18T03:14:31.965Z,82.50
2017-06-18T03:15:32.607Z,82.60
2017-06-18T03:16:33.252Z,82.79
2017-06-18T03:17:34.047Z,83.08
2017-06-18T03:18:34.691Z,84.05
2017-06-18T03:19:35.335Z,83.75
2017-06-18T03:20:35.976Z,84.24
2017-06-18T03:21:36.620Z,84.14
2017-06-18T03:22:37.266Z,84.05
2017-06-18T03:23:37.911Z,83.95
2017-06-18T03:24:38.551Z,83.37
2017-06-18T03:25:39.196Z,83.37
2017-06-18T03:26:40.039Z,83.27
2017-06-18T03:27:40.682Z,83.37
2017-06-18T03:28:41.327Z,84.14
2017-06-18T03:29:41.970Z,83.27
2017-06-18T03:30:42.614Z,83.66
2017-06-18T03:31:43.254Z,83.37
2017-06-18T03:32:43.899Z,83.27
2017-06-18T03:33:44.540Z,83.85
2017-06-18T03:34:45.536Z,83.27
2017-06-18T03:35:46.177Z,83.18
2017-06-18T03:36:46.822Z,83.37
2017-06-18T03:37:47.468Z,83.95
2017-06-18T03:38:48.110Z,84.33
2017-06-18T03:39:48.752Z,84.24
2017-06-18T03:40:49.393Z,84.24
2017-06-18T03:41:50.035Z,83.66
2017-06-18T03:42:50.830Z,84.05
2017-06-18T03:43:51.470Z,84.14
2017-06-18T03:44:52.114Z,82.98
2017-06-18T03:45:52.754Z,83.66
2017-06-18T03:46:53.398Z,83.27
2017-06-18T03:47:54.044Z,83.37
2017-06-18T03:48:54.689Z,83.47
2017-06-18T03:49:55.332Z,83.27
2017-06-18T03:50:56.173Z,83.56
2017-06-18T03:51:56.818Z,84.05
2017-06-18T03:52:57.462Z,83.47
2017-06-18T03:53:58.105Z,83.56
2017-06-18T03:54:58.750Z,84.05
2017-06-18T03:55:59.391Z,84.24
2017-06-18T03:57:00.033Z,83.85
2017-06-18T03:58:00.626Z,84.05
2017-06-18T03:59:01.270Z,83.75
2017-06-18T04:00:02.065Z,84.14
2017-06-18T04:01:02.708Z,84.33
2017-06-18T04:02:03.352Z,84.43
2017-06-18T04:03:03.996Z,84.33
2017-06-18T04:04:04.641Z,84.05
2017-06-18T04:05:05.286Z,83.95
2017-06-18T04:06:05.929Z,83.85
2017-06-18T04:07:06.572Z,83.08
2017-06-18T04:08:07.413Z,83.85
2017-06-18T04:09:08.066Z,83.47
2017-06-18T04:10:08.717Z,83.37
2017-06-18T04:11:09.356Z,83.85
2017-06-18T04:12:10.002Z,83.75
2017-06-18T04:13:10.646Z,83.85
2017-06-18T04:14:11.292Z,83.85
2017-06-18T04:15:11.932Z,84.24
2017-06-18T04:16:12.725Z,84.14
2017-06-18T04:17:13.374Z,84.05
2017-06-18T04:18:14.070Z,84.14
2017-06-18T04:19:14.716Z,84.33
2017-06-18T04:20:15.357Z,84.14
2017-06-18T04:21:16.002Z,83.85
2017-06-18T04:22:16.648Z,84.43
2017-06-18T04:23:17.287Z,83.85
2017-06-18T04:24:18.128Z,84.43
2017-06-18T04:25:18.772Z,83.56
2017-06-18T04:26:19.415Z,83.27
2017-06-18T04:27:20.059Z,83.85
2017-06-18T04:28:20.702Z,84.05
2017-06-18T04:29:21.345Z,83.85
2017-06-18T04:30:21.985Z,83.95
2017-06-18T04:31:22.629Z,83.95
2017-06-18T04:32:23.572Z,83.75
2017-06-18T04:33:24.216Z,84.39
2017-06-18T04:34:24.859Z,83.33
2017-06-18T04:35:25.503Z,83.81
2017-06-18T04:36:26.146Z,83.85
2017-06-18T04:37:26.788Z,84.33
2017-06-18T04:38:27.432Z,84.58
2017-06-18T04:39:28.076Z,84.00
2017-06-18T04:40:28.721Z,84.48
2017-06-18T04:41:29.514Z,84.48
2017-06-18T04:42:30.158Z,84.30
2017-06-18T04:43:30.799Z,84.58
2017-06-18T04:44:31.445Z,84.33
2017-06-18T04:45:32.088Z,84.82
2017-06-18T04:46:32.730Z,84.53
2017-06-18T04:47:33.374Z,84.33
2017-06-18T04:48:34.014Z,84.63
2017-06-18T04:49:34.860Z,84.33
2017-06-18T04:50:35.502Z,84.63
2017-06-18T04:51:36.144Z,84.43
2017-06-18T04:52:36.786Z,84.43
2017-06-18T04:53:37.428Z,84.53
2017-06-18T04:54:38.070Z,84.48
2017-06-18T04:55:38.713Z,84.43
2017-06-18T04:56:39.359Z,84.05
2017-06-18T04:57:40.201Z,83.23
2017-06-18T04:58:40.844Z,84.00
2017-06-18T04:59:41.487Z,83.72
2017-06-18T05:00:42.128Z,83.47
2017-06-18T05:01:42.772Z,83.23
2017-06-18T05:02:43.416Z,83.23
2017-06-18T05:03:44.060Z,84.00
2017-06-18T05:04:44.703Z,83.91
2017-06-18T05:05:45.546Z,83.81
2017-06-18T05:06:46.191Z,84.10
2017-06-18T05:07:46.834Z,84.39
2017-06-18T05:08:47.479Z,84.48
2017-06-18T05:09:48.131Z,84.58
2017-06-18T05:10:48.825Z,84.00
2017-06-18T05:11:49.467Z,84.58
2017-06-18T05:12:50.108Z,84.88
2017-06-18T05:13:50.751Z,84.48
2017-06-18T05:14:51.546Z,85.16
2017-06-18T05:15:52.189Z,85.26
2017-06-18T05:16:52.831Z,85.84
2017-06-18T05:17:53.472Z,85.74
2017-06-18T05:18:54.115Z,85.84
2017-06-18T05:19:54.759Z,84.58
2017-06-18T05:20:55.400Z,84.48
2017-06-18T05:21:56.044Z,85.36
2017-06-18T05:22:57.038Z,84.88
2017-06-18T05:23:57.683Z,84.97
2017-06-18T05:24:58.325Z,84.97
2017-06-18T05:25:58.968Z,84.97
2017-06-18T05:26:59.609Z,85.26
2017-06-18T05:28:00.253Z,85.26
2017-06-18T05:29:00.894Z,85.36
2017-06-18T05:30:01.540Z,84.78
2017-06-18T05:31:02.432Z,84.48
2017-06-18T05:32:03.074Z,84.78
2017-06-18T05:33:03.716Z,84.97
2017-06-18T05:34:04.360Z,84.78
2017-06-18T05:35:05.002Z,84.88
2017-06-18T05:36:05.646Z,84.97
2017-06-18T05:37:06.291Z,84.58
2017-06-18T05:38:06.934Z,84.58
2017-06-18T05:39:07.929Z,85.26
2017-06-18T05:40:08.571Z,84.78
2017-06-18T05:41:09.213Z,85.06
2017-06-18T05:42:09.856Z,84.88
2017-06-18T05:43:10.498Z,85.06
2017-06-18T05:44:11.144Z,85.16
2017-06-18T05:45:11.737Z,85.36
2017-06-18T05:46:12.379Z,85.26
2017-06-18T05:47:13.272Z,84.58
2017-06-18T05:48:13.915Z,84.97
2017-06-18T05:49:14.557Z,84.88
2017-06-18T05:50:15.199Z,84.97
2017-06-18T05:51:15.845Z,85.26
2017-06-18T05:52:16.490Z,84.78
2017-06-18T05:53:17.134Z,85.26
2017-06-18T05:54:17.775Z,85.49
2017-06-18T05:55:18.417Z,85.16
2017-06-18T05:56:19.262Z,85.06
2017-06-18T05:57:19.904Z,85.06
2017-06-18T05:58:20.548Z,84.97
2017-06-18T05:59:21.191Z,84.88
2017-06-18T06:00:21.835Z,84.58
2017-06-18T06:01:22.478Z,85.16
2017-06-18T06:02:23.123Z,85.26
2017-06-18T06:03:23.766Z,84.88
2017-06-18T06:04:24.707Z,85.16
2017-06-18T06:05:25.352Z,85.26
2017-06-18T06:06:25.995Z,85.16
2017-06-18T06:07:26.637Z,85.26
2017-06-18T06:08:27.280Z,85.21
2017-06-18T06:09:27.925Z,84.97
2017-06-18T06:10:28.570Z,85.11
2017-06-18T06:11:29.210Z,85.30
2017-06-18T06:12:30.205Z,84.88
2017-06-18T06:13:30.846Z,85.01
2017-06-18T06:14:31.489Z,84.82
2017-06-18T06:15:32.132Z,84.72
2017-06-18T06:16:32.775Z,85.01
2017-06-18T06:17:33.419Z,85.21
2017-06-18T06:18:34.060Z,84.72
2017-06-18T06:19:34.704Z,84.63
2017-06-18T06:20:35.547Z,85.01
2017-06-18T06:21:36.189Z,85.01
2017-06-18T06:22:36.831Z,84.53
2017-06-18T06:23:37.473Z,85.01
2017-06-18T06:24:38.115Z,84.91
2017-06-18T06:25:38.757Z,84.82
2017-06-18T06:26:39.404Z,84.82
2017-06-18T06:27:40.047Z,84.91
2017-06-18T06:28:40.892Z,84.68
2017-06-18T06:29:41.536Z,84.68
2017-06-18T06:30:42.176Z,84.58
2017-06-18T06:31:42.819Z,84.48
2017-06-18T06:32:43.464Z,84.30
2017-06-18T06:33:44.108Z,84.88
2017-06-18T06:34:44.751Z,85.06
2017-06-18T06:35:45.393Z,85.06
2017-06-18T06:36:46.035Z,84.58
2017-06-18T06:37:46.827Z,84.82
2017-06-18T06:38:47.469Z,84.48
2017-06-18T06:39:48.114Z,84.58
2017-06-18T06:40:48.755Z,84.78
2017-06-18T06:41:49.400Z,84.82
2017-06-18T06:42:50.043Z,85.26
2017-06-18T06:43:50.688Z,84.63
2017-06-18T06:44:51.331Z,84.58
2017-06-18T06:45:52.174Z,85.21
2017-06-18T06:46:52.817Z,84.97
2017-06-18T06:47:53.460Z,84.72
2017-06-18T06:48:54.103Z,84.91
2017-06-18T06:49:54.747Z,85.01
2017-06-18T06:50:55.390Z,84.82
2017-06-18T06:51:56.034Z,84.91
2017-06-18T06:52:56.674Z,84.82
2017-06-18T06:53:57.468Z,85.11
2017-06-18T06:54:58.111Z,84.72
2017-06-18T06:55:58.755Z,84.39
2017-06-18T06:56:59.396Z,84.48
2017-06-18T06:58:00.041Z,84.88
2017-06-18T06:59:00.740Z,84.78
2017-06-18T07:00:01.383Z,84.82
2017-06-18T07:01:02.026Z,85.11
2017-06-18T07:02:02.871Z,85.01
2017-06-18T07:03:03.511Z,84.91
2017-06-18T07:04:04.156Z,85.01
2017-06-18T07:05:04.798Z,85.11
2017-06-18T07:06:05.439Z,85.01
2017-06-18T07:07:06.084Z,85.11
2017-06-18T07:08:06.730Z,84.82
2017-06-18T07:09:07.373Z,84.91
2017-06-18T07:10:08.015Z,84.63
2017-06-18T07:11:08.859Z,84.63
2017-06-18T07:12:09.502Z,84.53
2017-06-18T07:13:10.145Z,84.82
2017-06-18T07:14:10.789Z,84.82
2017-06-18T07:15:11.430Z,84.24
2017-06-18T07:16:12.072Z,84.24
2017-06-18T07:17:12.716Z,84.24
2017-06-18T07:18:13.358Z,84.33
2017-06-18T07:19:14.150Z,84.43
2017-06-18T07:20:14.792Z,84.33
2017-06-18T07:21:15.437Z,83.85
2017-06-18T07:22:16.077Z,84.24
2017-06-18T07:23:16.720Z,84.43
2017-06-18T07:24:17.363Z,84.33
2017-06-18T07:25:18.007Z,84.24
2017-06-18T07:26:18.651Z,84.33
2017-06-18T07:27:19.492Z,84.33
2017-06-18T07:28:20.137Z,84.33
2017-06-18T07:29:20.780Z,83.85
2017-06-18T07:30:21.424Z,84.33
2017-06-18T07:31:22.067Z,84.24
2017-06-18T07:32:22.707Z,84.24
2017-06-18T07:33:23.352Z,84.24
2017-06-18T07:34:23.994Z,84.24
2017-06-18T07:35:24.839Z,84.24
2017-06-18T07:36:25.483Z,84.24
2017-06-18T07:37:26.124Z,83.95
2017-06-18T07:38:26.766Z,84.33
2017-06-18T07:39:27.407Z,84.05
2017-06-18T07:40:28.052Z,84.24
2017-06-18T07:41:28.695Z,84.33
2017-06-18T07:42:29.340Z,83.75
2017-06-18T07:43:30.132Z,83.75
2017-06-18T07:44:30.775Z,83.42
2017-06-18T07:45:31.421Z,83.95
2017-06-18T07:46:32.063Z,83.91
2017-06-18T07:47:32.704Z,83.85
2017-06-18T07:48:33.346Z,83.81
2017-06-18T07:49:33.990Z,84.14
2017-06-18T07:50:34.633Z,83.95
2017-06-18T07:51:35.275Z,83.91
2017-06-18T07:52:36.121Z,83.85
2017-06-18T07:53:36.769Z,83.85
2017-06-18T07:54:37.405Z,83.85
2017-06-18T07:55:38.048Z,83.08
2017-06-18T07:56:38.692Z,83.81
2017-06-18T07:57:39.336Z,83.95
2017-06-18T07:58:39.982Z,83.95
2017-06-18T07:59:40.628Z,84.33
2017-06-18T08:00:41.474Z,84.24
2017-06-18T08:01:42.118Z,83.85
2017-06-18T08:02:42.764Z,83.66
2017-06-18T08:03:43.404Z,83.75
2017-06-18T08:04:43.996Z,83.75
2017-06-18T08:05:44.640Z,83.85
2017-06-18T08:06:45.282Z,83.91
2017-06-18T08:07:45.924Z,84.14
2017-06-18T08:08:46.820Z,84.24
2017-06-18T08:09:47.462Z,84.43
2017-06-18T08:10:48.106Z,84.43
2017-06-18T08:11:48.751Z,84.33
2017-06-18T08:12:49.392Z,83.27
2017-06-18T08:13:49.986Z,83.18
2017-06-18T08:14:50.677Z,83.47
2017-06-18T08:15:51.320Z,83.08
2017-06-18T08:16:52.112Z,83.56
2017-06-18T08:17:52.754Z,83.62
2017-06-18T08:18:53.399Z,83.81
2017-06-18T08:19:54.048Z,83.14
2017-06-18T08:20:54.688Z,84.00
2017-06-18T08:21:55.329Z,83.42
2017-06-18T08:22:55.976Z,84.00
2017-06-18T08:23:56.615Z,83.85
2017-06-18T08:24:57.258Z,83.52
2017-06-18T08:25:58.100Z,83.91
2017-06-18T08:26:58.745Z,84.24
2017-06-18T08:27:59.388Z,83.72
2017-06-18T08:29:00.029Z,84.10
2017-06-18T08:30:00.673Z,83.75
2017-06-18T08:31:01.315Z,84.33
2017-06-18T08:32:01.957Z,84.05
2017-06-18T08:33:02.600Z,84.24
2017-06-18T08:34:03.445Z,83.91
2017-06-18T08:35:04.088Z,83.75
2017-06-18T08:36:04.730Z,84.33
2017-06-18T08:37:05.374Z,84.24
2017-06-18T08:38:06.025Z,83.95
2017-06-18T08:39:06.662Z,83.85
2017-06-18T08:40:07.363Z,84.43
2017-06-18T08:41:08.006Z,84.33
2017-06-18T08:42:08.852Z,84.33
2017-06-18T08:43:09.494Z,84.33
2017-06-18T08:44:10.135Z,84.33
2017-06-18T08:45:10.779Z,83.85
2017-06-18T08:46:11.369Z,83.85
2017-06-18T08:47:12.013Z,83.47
2017-06-18T08:48:12.657Z,83.75
2017-06-18T08:49:13.297Z,83.85
2017-06-18T08:50:14.140Z,83.85
2017-06-18T08:51:14.784Z,83.95
2017-06-18T08:52:15.431Z,84.05
2017-06-18T08:53:16.070Z,83.85
2017-06-18T08:54:16.714Z,83.75
2017-06-18T08:55:17.355Z,83.56
2017-06-18T08:56:18.001Z,83.85
2017-06-18T08:57:18.750Z,83.85
2017-06-18T08:58:19.390Z,83.75
2017-06-18T08:59:20.233Z,84.33
2017-06-18T09:00:20.880Z,84.05
2017-06-18T09:01:21.521Z,84.14
2017-06-18T09:02:22.165Z,83.85
2017-06-18T09:03:23.006Z,83.56
2017-06-18T09:04:23.657Z,83.75
2017-06-18T09:05:24.299Z,83.27
2017-06-18T09:06:24.945Z,83.75
2017-06-18T09:07:25.587Z,83.27
2017-06-18T09:08:26.232Z,83.08
2017-06-18T09:09:26.871Z,83.37
2017-06-18T09:10:27.516Z,83.85
2017-06-18T09:11:28.359Z,83.66
2017-06-18T09:12:29.003Z,83.47
2017-06-18T09:13:29.645Z,84.33
2017-06-18T09:14:30.289Z,84.33
2017-06-18T09:15:30.942Z,84.05
2017-06-18T09:16:31.586Z,83.95
2017-06-18T09:17:32.234Z,83.31
2017-06-18T09:18:32.884Z,82.93
2017-06-18T09:19:33.829Z,82.93
2017-06-18T09:20:34.478Z,82.35
2017-06-18T09:21:35.125Z,81.87
2017-06-18T09:22:35.777Z,81.87
2017-06-18T09:23:36.421Z,81.67
2017-06-18T09:24:37.017Z,81.87
2017-06-18T09:25:37.665Z,81.87
2017-06-18T09:26:38.315Z,81.42
2017-06-18T09:27:39.065Z,81.52
2017-06-18T09:28:39.713Z,81.81
2017-06-18T09:29:40.362Z,81.52
2017-06-18T09:30:41.009Z,80.84
2017-06-18T09:31:41.656Z,80.74
2017-06-18T09:32:42.305Z,79.58
2017-06-18T09:33:42.952Z,79.49
2017-06-18T09:34:43.598Z,78.81
2017-06-18T09:35:44.245Z,78.91
2017-06-18T09:36:45.445Z,79.20
2017-06-18T09:37:46.092Z,79.29
2017-06-18T09:38:46.743Z,79.58
2017-06-18T09:39:47.394Z,79.49
2017-06-18T09:40:48.105Z,79.58
2017-06-18T09:41:48.747Z,79.20
2017-06-18T09:42:49.397Z,78.94
2017-06-18T09:43:50.043Z,79.04
2017-06-18T09:44:50.842Z,79.14
2017-06-18T09:45:51.490Z,78.94
2017-06-18T09:46:52.138Z,78.85
2017-06-18T09:47:52.786Z,78.85
2017-06-18T09:48:53.437Z,79.04
2017-06-18T09:49:54.082Z,78.85
2017-06-18T09:50:54.729Z,78.94
2017-06-18T09:51:55.375Z,79.04
2017-06-18T09:52:56.223Z,78.46
2017-06-18T09:53:56.874Z,78.75
2017-06-18T09:54:57.522Z,78.75
2017-06-18T09:55:58.172Z,78.36
2017-06-18T09:56:58.820Z,79.04
2017-06-18T09:57:59.468Z,78.36
2017-06-18T09:59:00.168Z,78.75
2017-06-18T10:00:00.817Z,78.75
2017-06-18T10:01:01.614Z,78.66
2017-06-18T10:02:02.260Z,78.89
2017-06-18T10:03:02.907Z,78.94
2017-06-18T10:04:03.556Z,79.04
2017-06-18T10:05:04.205Z,78.85
2017-06-18T10:06:04.852Z,78.66
2017-06-18T10:07:05.498Z,78.66
2017-06-18T10:08:06.150Z,78.94
2017-06-18T10:09:06.996Z,78.85
2017-06-18T10:10:07.647Z,78.85
2017-06-18T10:11:08.297Z,79.24
2017-06-18T10:12:08.944Z,79.33
2017-06-18T10:13:09.597Z,79.33
2017-06-18T10:14:10.246Z,79.52
2017-06-18T10:15:10.896Z,79.82
2017-06-18T10:16:11.547Z,79.72
2017-06-18T10:17:12.193Z,80.20
2017-06-18T10:18:12.997Z,80.69
2017-06-18T10:19:13.641Z,80.15
2017-06-18T10:20:14.292Z,79.62
2017-06-18T10:21:14.941Z,79.57
2017-06-18T10:22:15.589Z,78.99
2017-06-18T10:23:16.240Z,78.99
2017-06-18T10:24:16.890Z,78.89
2017-06-18T10:25:17.539Z,78.99
2017-06-18T10:26:18.339Z,78.99
2017-06-18T10:27:18.988Z,78.89
2017-06-18T10:28:19.639Z,78.79
2017-06-18T10:29:20.288Z,78.79
2017-06-18T10:30:20.938Z,79.17
2017-06-18T10:31:21.588Z,78.89
2017-06-18T10:32:22.239Z,78.79
2017-06-18T10:33:22.890Z,78.99
2017-06-18T10:34:23.741Z,78.99
2017-06-18T10:35:24.391Z,79.17
2017-06-18T10:36:25.037Z,78.59
2017-06-18T10:37:25.685Z,78.59
2017-06-18T10:38:26.333Z,78.79
2017-06-18T10:39:26.982Z,78.89
2017-06-18T10:40:27.630Z,78.74
2017-06-18T10:41:28.279Z,78.41
2017-06-18T10:42:29.130Z,78.25
2017-06-18T10:43:29.779Z,78.31
2017-06-18T10:44:30.430Z,78.64
2017-06-18T10:45:31.077Z,78.74
2017-06-18T10:46:31.729Z,78.15
2017-06-18T10:47:32.377Z,78.05
2017-06-18T10:48:33.026Z,78.15
2017-06-18T10:49:33.677Z,77.76
2017-06-18T10:50:34.330Z,77.67
2017-06-18T10:51:35.279Z,77.37
2017-06-18T10:52:35.928Z,77.37
2017-06-18T10:53:36.577Z,77.37
2017-06-18T10:54:37.229Z,77.47
2017-06-18T10:55:37.879Z,77.57
2017-06-18T10:56:38.527Z,76.99
2017-06-18T10:57:39.181Z,77.28
2017-06-18T10:58:39.827Z,77.19
2017-06-18T10:59:40.580Z,76.89
2017-06-18T11:00:41.228Z,76.51
2017-06-18T11:01:41.878Z,76.70
2017-06-18T11:02:42.527Z,76.51
2017-06-18T11:03:43.176Z,76.41
2017-06-18T11:04:43.827Z,76.51
2017-06-18T11:05:44.476Z,76.41
2017-06-18T11:06:45.128Z,76.51
2017-06-18T11:07:45.977Z,76.31
2017-06-18T11:08:46.627Z,76.79
2017-06-18T11:09:47.337Z,76.51
2017-06-18T11:10:47.985Z,76.02
2017-06-18T11:11:48.635Z,76.41
2017-06-18T11:12:49.286Z,76.31
2017-06-18T11:13:49.938Z,75.73
2017-06-18T11:14:50.588Z,76.02
2017-06-18T11:15:51.390Z,75.54
2017-06-18T11:16:52.043Z,75.63
2017-06-18T11:17:52.695Z,75.92
2017-06-18T11:18:53.346Z,75.83
2017-06-18T11:19:53.996Z,75.73
2017-06-18T11:20:54.647Z,75.92
2017-06-18T11:21:55.298Z,75.38
2017-06-18T11:22:55.948Z,75.54
2017-06-18T11:23:56.601Z,75.54
2017-06-18T11:24:57.537Z,75.67
2017-06-18T11:25:58.191Z,75.48
2017-06-18T11:26:58.841Z,75.28
2017-06-18T11:27:59.493Z,75.28
2017-06-18T11:29:00.145Z,75.09
2017-06-18T11:30:00.797Z,75.19
2017-06-18T11:31:01.449Z,75.28
2017-06-18T11:32:02.099Z,75.09
2017-06-18T11:33:02.999Z,75.19
2017-06-18T11:34:03.651Z,74.99
2017-06-18T11:35:04.302Z,75.09
2017-06-18T11:36:04.953Z,75.09
2017-06-18T11:37:05.605Z,75.09
2017-06-18T11:38:06.259Z,74.70
2017-06-18T11:39:06.910Z,74.80
2017-06-18T11:40:07.562Z,75.09
2017-06-18T11:41:08.515Z,75.28
2017-06-18T11:42:09.165Z,75.57
2017-06-18T11:43:09.818Z,75.19
2017-06-18T11:44:10.471Z,75.48
2017-06-18T11:45:11.124Z,75.51
2017-06-18T11:46:11.779Z,75.57
2017-06-18T11:47:12.427Z,75.71
2017-06-18T11:48:13.079Z,75.81
2017-06-18T11:49:13.932Z,75.61
2017-06-18T11:50:14.586Z,75.51
2017-06-18T11:51:15.236Z,75.61
2017-06-18T11:52:15.889Z,75.61
2017-06-18T11:53:16.543Z,75.32
2017-06-18T11:54:17.196Z,75.23
2017-06-18T11:55:17.846Z,75.13
2017-06-18T11:56:18.500Z,75.32
2017-06-18T11:57:19.453Z,75.42
2017-06-18T11:58:20.106Z,75.26
2017-06-18T11:59:20.761Z,75.26
2017-06-18T12:00:21.412Z,74.84
2017-06-18T12:01:22.065Z,75.26
2017-06-18T12:02:22.714Z,75.07
2017-06-18T12:03:23.365Z,75.26
2017-06-18T12:04:24.017Z,75.55
2017-06-18T12:05:24.671Z,75.45
2017-06-18T12:06:25.521Z,74.97
2017-06-18T12:07:26.171Z,74.77
2017-06-18T12:08:26.822Z,74.68
2017-06-18T12:09:27.474Z,74.97
2017-06-18T12:10:28.122Z,74.58
2017-06-18T12:11:28.774Z,74.29
2017-06-18T12:12:29.423Z,74.04
2017-06-18T12:13:30.076Z,74.04
2017-06-18T12:14:30.929Z,73.46
2017-06-18T12:15:31.580Z,73.74
2017-06-18T12:16:32.230Z,73.65
2017-06-18T12:17:32.880Z,73.26
2017-06-18T12:18:33.532Z,72.97
2017-06-18T12:19:34.186Z,73.46
2017-06-18T12:20:34.835Z,72.87
2017-06-18T12:21:35.490Z,73.20
2017-06-18T12:22:36.293Z,72.61
2017-06-18T12:23:36.943Z,72.71
2017-06-18T12:24:37.595Z,72.71
2017-06-18T12:25:38.244Z,72.42
2017-06-18T12:26:38.898Z,72.33
2017-06-18T12:27:39.549Z,71.94
2017-06-18T12:28:40.202Z,72.03
2017-06-18T12:29:40.854Z,71.55
2017-06-18T12:30:41.806Z,71.39
2017-06-18T12:31:42.457Z,71.78
2017-06-18T12:32:43.110Z,71.20
2017-06-18T12:33:43.760Z,71.10
2017-06-18T12:34:44.413Z,70.90
2017-06-18T12:35:45.067Z,70.90
2017-06-18T12:36:45.717Z,70.51
2017-06-18T12:37:46.376Z,70.61
2017-06-18T12:38:47.028Z,70.51
2017-06-18T12:39:48.005Z,70.71
2017-06-18T12:40:48.658Z,70.55
2017-06-18T12:41:49.309Z,70.16
2017-06-18T12:42:49.962Z,70.06
2017-06-18T12:43:50.617Z,70.06
2017-06-18T12:44:51.270Z,69.87
2017-06-18T12:45:51.922Z,69.67
2017-06-18T12:46:52.574Z,69.87
2017-06-18T12:47:53.430Z,69.38
2017-06-18T12:48:54.082Z,69.38
2017-06-18T12:49:54.736Z,69.48
2017-06-18T12:50:55.391Z,69.48
2017-06-18T12:51:56.043Z,69.09
2017-06-18T12:52:56.696Z,69.19
2017-06-18T12:53:57.351Z,69.38
2017-06-18T12:54:57.955Z,69.38
2017-06-18T12:55:58.810Z,68.80
2017-06-18T12:56:59.462Z,68.99
2017-06-18T12:58:00.116Z,68.80
2017-06-18T12:59:00.768Z,69.19
2017-06-18T13:00:01.470Z,68.80
2017-06-18T13:01:02.122Z,68.80